createdAt,value
2023-04-03T00:00:58.024Z,99717.91
2023-04-03T00:03:24.358Z,99708.28
2023-04-03T00:05:51.141Z,99714.09
2023-04-03T00:08:17.480Z,99720.25
2023-04-03T00:10:43.821Z,99719.44
2023-04-03T00:13:10.196Z,99722.00
2023-04-03T00:15:36.513Z,99717.84
2023-04-03T00:18:03.039Z,99720.41
2023-04-03T00:20:29.443Z,99723.56
2023-04-03T00:22:55.787Z,99725.06
2023-04-03T00:25:22.190Z,99725.28
2023-04-03T00:27:48.510Z,99727.66
2023-04-03T00:30:15.712Z,99733.44
2023-04-03T00:32:42.041Z,99735.53
2023-04-03T00:35:08.506Z,99729.59
2023-04-03T00:37:34.834Z,99738.06
2023-04-03T00:40:01.293Z,99737.75
2023-04-03T00:42:27.655Z,99734.28
2023-04-03T00:44:53.929Z,99731.00
2023-04-03T00:47:20.704Z,99735.19
2023-04-03T00:49:47.011Z,99739.16
2023-04-03T00:52:14.845Z,99735.66
2023-04-03T00:54:41.222Z,99733.44
2023-04-03T00:57:07.557Z,99737.94
2023-04-03T00:59:35.422Z,99741.88
2023-04-03T01:02:01.916Z,99741.31
2023-04-03T01:04:32.281Z,99741.56
2023-04-03T01:06:59.529Z,99747.22
2023-04-03T01:09:26.313Z,99749.66
2023-04-03T01:11:52.619Z,99742.25
2023-04-03T01:14:18.951Z,99745.94
2023-04-03T01:16:52.880Z,99746.19
2023-04-03T01:19:19.218Z,99740.25
2023-04-03T01:21:50.109Z,99741.56
2023-04-03T01:24:31.441Z,99736.66
2023-04-03T01:26:57.813Z,99744.91
2023-04-03T01:29:24.131Z,99743.75
2023-04-03T01:31:51.243Z,99735.16
2023-04-03T01:34:17.698Z,99740.16
2023-04-03T01:36:44.048Z,99737.69
2023-04-03T01:39:10.441Z,99736.31
2023-04-03T01:41:36.759Z,99737.00
2023-04-03T01:44:03.079Z,99742.34
2023-04-03T01:46:29.393Z,99739.09
2023-04-03T01:48:55.740Z,99739.56
2023-04-03T01:51:22.061Z,99742.44
2023-04-03T01:53:48.381Z,99745.34
2023-04-03T01:56:14.685Z,99741.25
2023-04-03T01:58:41.019Z,99742.56
2023-04-03T02:01:07.572Z,99740.13
2023-04-03T02:03:33.991Z,99737.66
2023-04-03T02:06:00.394Z,99742.44
2023-04-03T02:08:26.737Z,99734.88
2023-04-03T02:10:53.105Z,99745.22
2023-04-03T02:13:19.631Z,99741.50
2023-04-03T02:15:46.408Z,99741.50
2023-04-03T02:18:12.866Z,99749.75
2023-04-03T02:20:39.506Z,99744.41
2023-04-03T02:23:06.733Z,99747.53
2023-04-03T02:25:33.226Z,99749.16
2023-04-03T02:27:59.549Z,99746.72
2023-04-03T02:30:26.110Z,99750.44
2023-04-03T02:32:52.457Z,99751.47
2023-04-03T02:35:18.816Z,99749.63
2023-04-03T02:37:45.286Z,99751.69
2023-04-03T02:40:12.441Z,99747.63
2023-04-03T02:42:38.780Z,99743.34
2023-04-03T02:45:05.495Z,99749.13
2023-04-03T02:47:31.884Z,99746.91
2023-04-03T02:49:58.269Z,99754.34
2023-04-03T02:52:24.834Z,99744.94
2023-04-03T02:54:51.154Z,99750.25
2023-04-03T02:57:17.511Z,99749.44
2023-04-03T02:59:45.112Z,99741.31
2023-04-03T03:02:11.508Z,99751.53
2023-04-03T03:04:37.898Z,99757.88
2023-04-03T03:07:04.242Z,99757.31
2023-04-03T03:09:30.565Z,99764.75
2023-04-03T03:11:57.371Z,99762.28
2023-04-03T03:14:23.942Z,99765.19
2023-04-03T03:16:50.479Z,99762.75
2023-04-03T03:19:16.849Z,99768.50
2023-04-03T03:21:43.174Z,99769.75
2023-04-03T03:24:09.541Z,99768.72
2023-04-03T03:26:36.083Z,99782.22
2023-04-03T03:29:02.429Z,99769.94
2023-04-03T03:31:28.757Z,99775.28
2023-04-03T03:33:55.380Z,99784.25
2023-04-03T03:36:21.747Z,99781.00
2023-04-03T03:38:48.106Z,99775.91
2023-04-03T03:41:14.435Z,99772.66
2023-04-03T03:43:40.932Z,99777.16
2023-04-03T03:46:07.301Z,99776.59
2023-04-03T03:48:33.672Z,99778.88
2023-04-03T03:51:00.001Z,99772.94
2023-04-03T03:53:26.540Z,99777.28
2023-04-03T03:55:52.853Z,99780.94
2023-04-03T03:58:19.183Z,99773.19
2023-04-03T04:00:45.651Z,99780.94
2023-04-03T04:03:12.083Z,99781.19
2023-04-03T04:05:38.766Z,99779.56
2023-04-03T04:08:05.501Z,99776.28
2023-04-03T04:10:31.831Z,99785.56
2023-04-03T04:12:58.766Z,99784.75
2023-04-03T04:15:26.512Z,99778.81
2023-04-03T04:17:52.893Z,99776.03
2023-04-03T04:20:19.248Z,99779.16
2023-04-03T04:22:45.552Z,99777.06
2023-04-03T04:25:11.887Z,99767.31
2023-04-03T04:27:38.310Z,99778.53
2023-04-03T04:30:05.362Z,99775.88
2023-04-03T04:32:31.879Z,99777.50
2023-04-03T04:34:58.266Z,99777.50
2023-04-03T04:37:24.660Z,99776.69
2023-04-03T04:39:51.009Z,99780.16
2023-04-03T04:42:17.988Z,99784.69
2023-04-03T04:44:44.335Z,99788.63
2023-04-03T04:47:10.658Z,99783.50
2023-04-03T04:49:37.113Z,99783.72
2023-04-03T04:52:03.448Z,99796.47
2023-04-03T04:54:29.818Z,99794.81
2023-04-03T04:56:56.355Z,99805.47
2023-04-03T04:59:22.727Z,99799.13
2023-04-03T05:01:49.088Z,99806.50
2023-04-03T05:04:16.124Z,99803.03
2023-04-03T05:06:42.475Z,99802.81
2023-04-03T05:09:10.049Z,99809.19
2023-04-03T05:11:36.400Z,99810.78
2023-04-03T05:14:02.778Z,99802.22
2023-04-03T05:16:29.175Z,99811.84
2023-04-03T05:18:55.577Z,99803.03
2023-04-03T05:21:24.180Z,99816.97
2023-04-03T05:23:50.513Z,99812.66
2023-04-03T05:26:16.873Z,99813.69
2023-04-03T05:28:43.198Z,99814.50
2023-04-03T05:31:09.528Z,99819.03
2023-04-03T05:33:36.108Z,99813.31
2023-04-03T05:36:03.526Z,99814.59
2023-04-03T05:38:29.966Z,99823.38
2023-04-03T05:40:56.391Z,99825.97
2023-04-03T05:43:22.724Z,99829.00
2023-04-03T05:45:49.293Z,99829.38
2023-04-03T05:48:15.797Z,99838.09
2023-04-03T05:50:43.381Z,99837.66
2023-04-03T05:53:17.358Z,99840.47
2023-04-03T05:55:43.684Z,99839.66
2023-04-03T05:58:11.594Z,99850.88
2023-04-03T06:00:38.266Z,99849.66
2023-04-03T06:03:04.712Z,99858.22
2023-04-03T06:05:31.280Z,99850.03
2023-04-03T06:07:58.075Z,99851.53
2023-04-03T06:10:24.391Z,99860.72
2023-04-03T06:12:51.089Z,99865.19
2023-04-03T06:15:18.183Z,99865.56
2023-04-03T06:17:44.514Z,99858.38
2023-04-03T06:20:11.078Z,99864.69
2023-04-03T06:22:37.445Z,99868.50
2023-04-03T06:25:03.969Z,99866.19
2023-04-03T06:27:30.292Z,99870.03
2023-04-03T06:29:56.676Z,99873.28
2023-04-03T06:32:23.029Z,99875.28
2023-04-03T06:34:49.385Z,99872.16
2023-04-03T06:37:16.520Z,99879.94
2023-04-03T06:39:43.208Z,99882.16
2023-04-03T06:42:09.576Z,99889.91
2023-04-03T06:44:36.151Z,99888.22
2023-04-03T06:47:02.483Z,99893.69
2023-04-03T06:49:29.808Z,99887.06
2023-04-03T06:51:57.057Z,99889.25
2023-04-03T06:54:23.459Z,99889.25
2023-04-03T06:56:49.961Z,99896.94
2023-04-03T06:59:16.306Z,99898.47
2023-04-03T07:01:42.888Z,99911.63
2023-04-03T07:04:09.350Z,99917.69
2023-04-03T07:06:35.933Z,99915.16
2023-04-03T07:09:02.341Z,99910.41
2023-04-03T07:11:28.943Z,99919.56
2023-04-03T07:13:55.296Z,99923.16
2023-04-03T07:16:21.646Z,99932.56
2023-04-03T07:18:48.053Z,99936.00
2023-04-03T07:21:14.389Z,99932.00
2023-04-03T07:23:40.807Z,99934.34
2023-04-03T07:26:07.608Z,99942.69
2023-04-03T07:28:33.999Z,99948.63
2023-04-03T07:31:13.043Z,99949.19
2023-04-03T07:33:39.610Z,99958.63
2023-04-03T07:36:08.166Z,99963.56
2023-04-03T07:38:35.214Z,99968.41
2023-04-03T07:41:02.157Z,99963.28
2023-04-03T07:43:28.480Z,99961.47
2023-04-03T07:45:55.281Z,99965.59
2023-04-03T07:48:22.072Z,99965.00
2023-04-03T07:50:48.385Z,99967.72
2023-04-03T07:53:14.984Z,99961.88
2023-04-03T07:55:44.286Z,99980.34
2023-04-03T07:58:19.594Z,99961.00
2023-04-03T08:00:46.105Z,99963.63
2023-04-03T08:03:13.005Z,99970.34
2023-04-03T08:05:40.018Z,99964.91
2023-04-03T08:08:06.679Z,99965.84
2023-04-03T08:10:33.041Z,99966.78
2023-04-03T08:12:59.550Z,99973.28
2023-04-03T08:15:26.451Z,99972.94
2023-04-03T08:17:52.799Z,99962.63
2023-04-03T08:20:19.201Z,99969.13
2023-04-03T08:22:45.633Z,99966.00
2023-04-03T08:25:11.989Z,99968.22
2023-04-03T08:27:38.886Z,99959.72
2023-04-03T08:30:05.625Z,99958.56
2023-04-03T08:32:31.977Z,99964.28
2023-04-03T08:34:58.356Z,99964.38
2023-04-03T08:37:24.719Z,99963.31
2023-04-03T08:39:51.331Z,99962.06
2023-04-03T08:42:37.897Z,99959.97
2023-04-03T08:45:09.929Z,99968.31
2023-04-03T08:47:40.056Z,99970.28
2023-04-03T08:50:07.283Z,99973.09
2023-04-03T08:52:37.667Z,99972.19
2023-04-03T08:55:27.470Z,99978.31
2023-04-03T08:58:02.119Z,99978.66
2023-04-03T09:00:29.786Z,99978.91
2023-04-03T09:02:56.703Z,99978.41
2023-04-03T09:05:32.199Z,99972.63
2023-04-03T09:08:00.613Z,99963.34
2023-04-03T09:10:32.327Z,99970.31
2023-04-03T09:13:01.240Z,99970.41
2023-04-03T09:15:37.826Z,99973.19
2023-04-03T09:18:16.504Z,99972.38
2023-04-03T09:20:47.323Z,99968.69
2023-04-03T09:23:15.819Z,99974.94
2023-04-03T09:25:42.554Z,99963.16
2023-04-03T09:28:11.051Z,99962.59
2023-04-03T09:30:39.024Z,99964.81
2023-04-03T09:33:06.153Z,99978.16
2023-04-03T09:35:44.705Z,99977.09
2023-04-03T09:38:14.077Z,99966.88
2023-04-03T09:40:41.065Z,99966.56
2023-04-03T09:43:21.285Z,99953.91
2023-04-03T09:45:48.280Z,99961.06
2023-04-03T09:48:16.371Z,99960.84
2023-04-03T09:50:52.330Z,99960.25
2023-04-03T09:53:37.359Z,99956.78
2023-04-03T09:56:04.663Z,99947.16
2023-04-03T09:58:49.578Z,99938.81
2023-04-03T10:03:47.488Z,99934.72
2023-04-03T10:06:24.085Z,99935.41
2023-04-03T10:09:00.836Z,99931.69
2023-04-03T10:11:27.613Z,99934.25
2023-04-03T10:14:00.747Z,99940.75
2023-04-03T10:16:33.103Z,99941.44
2023-04-03T10:19:03.449Z,99948.28
2023-04-03T10:21:46.201Z,99950.00
2023-04-03T10:24:13.228Z,99944.56
2023-04-03T10:26:51.775Z,99942.78
2023-04-03T10:29:37.294Z,99933.88
2023-04-03T10:32:09.764Z,99939.41
2023-04-03T10:34:46.800Z,99939.78
2023-04-03T10:37:25.168Z,99934.00
2023-04-03T10:39:58.462Z,99937.31
2023-04-03T10:42:36.713Z,99944.47
2023-04-03T10:45:08.788Z,99938.03
2023-04-03T10:47:51.920Z,99934.28
2023-04-03T10:50:21.229Z,99924.41
2023-04-03T10:53:06.443Z,99923.16
2023-04-03T10:55:35.866Z,99921.19
2023-04-03T10:58:02.273Z,99921.47
2023-04-03T11:00:34.927Z,99918.94
2023-04-03T11:03:02.292Z,99920.63
2023-04-03T11:05:40.669Z,99922.63
2023-04-03T11:08:11.760Z,99917.28
2023-04-03T11:10:45.855Z,99920.13
2023-04-03T11:13:12.128Z,99916.66
2023-04-03T11:15:38.683Z,99917.56
2023-04-03T11:18:09.725Z,99929.59
2023-04-03T11:20:38.738Z,99901.25
2023-04-03T11:23:15.147Z,99899.47
2023-04-03T11:25:44.291Z,99899.22
2023-04-03T11:28:15.084Z,99896.56
2023-04-03T11:30:51.937Z,99896.34
2023-04-03T11:33:25.940Z,99889.91
2023-04-03T11:35:52.941Z,99889.16
2023-04-03T11:38:24.915Z,99887.69
2023-04-03T11:40:51.366Z,99885.72
2023-04-03T11:43:29.573Z,99893.72
2023-04-03T11:45:55.943Z,99887.38
2023-04-03T11:48:29.317Z,99884.19
2023-04-03T11:50:59.209Z,99887.78
2023-04-03T11:53:35.782Z,99898.25
2023-04-03T11:56:22.087Z,99884.69
2023-04-03T11:59:08.497Z,99884.00
2023-04-03T12:02:01.439Z,99884.78
2023-04-03T12:04:28.011Z,99889.09
2023-04-03T12:07:12.015Z,99891.50
2023-04-03T12:09:41.360Z,99883.50
2023-04-03T12:12:37.247Z,99879.34
2023-04-03T12:15:13.187Z,99866.22
2023-04-03T12:17:39.553Z,99860.75
2023-04-03T12:20:24.902Z,99863.31
2023-04-03T12:23:30.003Z,99863.78
2023-04-03T12:26:22.819Z,99854.03
2023-04-03T12:28:49.487Z,99847.41
2023-04-03T12:31:15.957Z,99847.19
2023-04-03T12:34:00.823Z,99849.84
2023-04-03T12:36:29.467Z,99852.19
2023-04-03T12:39:07.206Z,99849.50
2023-04-03T12:41:54.293Z,99844.41
2023-04-03T12:44:28.263Z,99838.69
2023-04-03T12:46:54.729Z,99851.81
2023-04-03T12:49:21.109Z,99844.03
2023-04-03T12:51:47.782Z,99837.53
2023-04-03T12:54:14.869Z,99835.91
2023-04-03T12:56:41.268Z,99831.13
2023-04-03T12:59:14.969Z,99827.19
2023-04-03T13:01:41.527Z,99831.03
2023-04-03T13:04:08.218Z,99831.38
2023-04-03T13:06:43.907Z,99825.69
2023-04-03T13:09:19.434Z,99822.66
2023-04-03T13:11:45.956Z,99825.53
2023-04-03T13:14:19.044Z,99828.09
2023-04-03T13:17:03.889Z,99818.72
2023-04-03T13:19:30.423Z,99809.66
2023-04-03T13:22:20.319Z,99805.94
2023-04-03T13:24:46.979Z,99805.81
2023-04-03T13:27:13.315Z,99806.31
2023-04-03T13:29:40.129Z,99791.56
2023-04-03T13:32:06.731Z,99797.13
2023-04-03T13:34:40.774Z,99792.00
2023-04-03T13:37:08.937Z,99798.16
2023-04-03T13:39:36.039Z,99797.94
2023-04-03T13:42:03.690Z,99799.31
2023-04-03T13:44:31.240Z,99793.53
2023-04-03T13:47:12.638Z,99793.88
2023-04-03T13:49:39.649Z,99790.84
2023-04-03T13:52:21.556Z,99783.19
2023-04-03T13:54:47.881Z,99775.63
2023-04-03T13:57:15.012Z,99784.69
2023-04-03T13:59:41.375Z,99787.00
2023-04-03T14:02:11.774Z,99779.00
2023-04-03T14:04:38.081Z,99770.19
2023-04-03T14:07:04.442Z,99772.75
2023-04-03T14:09:30.836Z,99779.16
2023-04-03T14:12:01.329Z,99776.22
2023-04-03T14:14:28.348Z,99782.38
2023-04-03T14:16:55.899Z,99773.09
2023-04-03T14:19:29.147Z,99776.34
2023-04-03T14:21:55.983Z,99751.94
2023-04-03T14:24:22.687Z,99761.72
2023-04-03T14:26:49.691Z,99757.28
2023-04-03T14:29:16.090Z,99762.88
2023-04-03T14:31:43.153Z,99762.78
2023-04-03T14:34:10.615Z,99752.09
2023-04-03T14:36:37.311Z,99756.28
2023-04-03T14:39:04.216Z,99755.22
2023-04-03T14:41:30.717Z,99761.63
2023-04-03T14:43:57.094Z,99752.56
2023-04-03T14:46:32.406Z,99754.19
2023-04-03T14:49:10.443Z,99754.75
2023-04-03T14:51:38.858Z,99749.19
2023-04-03T14:54:06.237Z,99745.47
2023-04-03T14:56:32.556Z,99735.59
2023-04-03T14:58:59.545Z,99740.94
2023-04-03T15:01:26.240Z,99736.06
2023-04-03T15:03:52.685Z,99744.31
2023-04-03T15:06:19.068Z,99743.53
2023-04-03T15:08:45.517Z,99740.25
2023-04-03T15:11:11.858Z,99745.03
2023-04-03T15:13:38.586Z,99739.69
2023-04-03T15:16:05.378Z,99736.44
2023-04-03T15:18:32.275Z,99737.72
2023-04-03T15:20:58.586Z,99733.41
2023-04-03T15:23:29.198Z,99725.41
2023-04-03T15:25:55.574Z,99725.66
2023-04-03T15:28:29.320Z,99728.06
2023-04-03T15:30:55.807Z,99730.28
2023-04-03T15:33:22.168Z,99726.00
2023-04-03T15:35:48.494Z,99732.59
2023-04-03T15:38:14.860Z,99733.09
2023-04-03T15:40:41.172Z,99736.22
2023-04-03T15:43:07.557Z,99728.44
2023-04-03T15:45:34.517Z,99728.91
2023-04-03T15:48:01.083Z,99721.34
2023-04-03T15:50:27.418Z,99721.84
2023-04-03T15:52:55.433Z,99726.59
2023-04-03T15:55:22.840Z,99729.84
2023-04-03T15:57:49.499Z,99719.75
2023-04-03T16:00:16.171Z,99729.16
2023-04-03T16:02:42.886Z,99727.03
2023-04-03T16:05:10.200Z,99719.63
2023-04-03T16:07:37.528Z,99716.16
2023-04-03T16:10:03.884Z,99719.03
2023-04-03T16:12:30.538Z,99718.00
2023-04-03T16:14:56.863Z,99719.28
2023-04-03T16:17:23.274Z,99717.41
2023-04-03T16:19:49.659Z,99717.66
2023-04-03T16:22:15.972Z,99710.94
2023-04-03T16:24:42.280Z,99711.97
2023-04-03T16:27:08.605Z,99715.69
2023-04-03T16:29:35.026Z,99719.38
2023-04-03T16:32:01.338Z,99718.81
2023-04-03T16:34:28.046Z,99723.13
2023-04-03T16:36:54.385Z,99726.59
2023-04-03T16:39:20.767Z,99730.06
2023-04-03T16:41:47.072Z,99728.44
2023-04-03T16:44:14.599Z,99729.50
2023-04-03T16:46:41.019Z,99725.44
2023-04-03T16:49:07.394Z,99728.34
2023-04-03T16:51:33.733Z,99723.50
2023-04-03T16:54:00.044Z,99727.41
2023-04-03T16:56:27.633Z,99725.00
2023-04-03T16:58:54.570Z,99713.94
2023-04-03T17:01:21.158Z,99719.72
2023-04-03T17:03:47.563Z,99721.81
2023-04-03T17:06:17.496Z,99713.72
2023-04-03T17:08:44.269Z,99717.19
2023-04-03T17:11:11.024Z,99714.03
2023-04-03T17:13:37.348Z,99708.84
2023-04-03T17:16:05.789Z,99713.13
2023-04-03T17:18:32.634Z,99717.19
2023-04-03T17:20:58.943Z,99710.84
2023-04-03T17:23:25.706Z,99708.97
2023-04-03T17:25:52.117Z,99703.66
2023-04-03T17:28:18.460Z,99701.19
2023-04-03T17:30:44.782Z,99704.09
2023-04-03T17:33:11.156Z,99706.03
2023-04-03T17:35:37.637Z,99698.63
2023-04-03T17:38:05.029Z,99706.41
2023-04-03T17:40:31.390Z,99706.19
2023-04-03T17:42:57.866Z,99709.06
2023-04-03T17:45:24.209Z,99708.50
2023-04-03T17:47:51.683Z,99722.63
2023-04-03T17:50:18.997Z,99715.72
2023-04-03T17:52:45.824Z,99717.16
2023-04-03T17:55:13.339Z,99709.41
2023-04-03T17:57:39.661Z,99706.78
2023-04-03T18:00:06.623Z,99709.16
2023-04-03T18:02:33.052Z,99712.91
2023-04-03T18:04:59.834Z,99714.59
2023-04-03T18:07:26.162Z,99697.81
2023-04-03T18:09:52.474Z,99708.03
2023-04-03T18:12:18.774Z,99712.09
2023-04-03T18:14:46.841Z,99714.09
2023-04-03T18:17:13.162Z,99717.84
2023-04-03T18:19:39.495Z,99716.28
2023-04-03T18:22:06.652Z,99714.31
2023-04-03T18:24:33.458Z,99715.69
2023-04-03T18:27:00.668Z,99718.09
2023-04-03T18:29:27.325Z,99722.81
2023-04-03T18:31:54.026Z,99726.47
2023-04-03T18:34:20.475Z,99723.63
2023-04-03T18:36:47.725Z,99728.66
2023-04-03T18:39:14.562Z,99726.22
2023-04-03T18:41:40.940Z,99730.84
2023-04-03T18:44:08.237Z,99726.06
2023-04-03T18:46:34.667Z,99726.81
2023-04-03T18:49:01.077Z,99732.97
2023-04-03T18:51:27.686Z,99737.81
2023-04-03T18:53:54.021Z,99735.41
2023-04-03T18:56:20.341Z,99729.56
2023-04-03T18:58:46.715Z,99725.34
2023-04-03T19:01:13.443Z,99733.19
2023-04-03T19:03:39.941Z,99728.06
2023-04-03T19:06:06.405Z,99737.16
2023-04-03T19:08:32.842Z,99736.84
2023-04-03T19:10:59.330Z,99741.69
2023-04-03T19:13:27.518Z,99741.63
2023-04-03T19:15:59.070Z,99747.06
2023-04-03T19:18:28.665Z,99734.72
2023-04-03T19:20:55.753Z,99741.47
2023-04-03T19:23:22.181Z,99735.53
2023-04-03T19:25:56.772Z,99726.16
2023-04-03T19:28:23.152Z,99732.78
2023-04-03T19:30:49.459Z,99729.31
2023-04-03T19:33:15.763Z,99729.94
2023-04-03T19:35:42.254Z,99722.72
2023-04-03T19:38:08.660Z,99728.44
2023-04-03T19:40:35.457Z,99725.47
2023-04-03T19:43:01.785Z,99729.75
2023-04-03T19:45:28.233Z,99730.44
2023-04-03T19:47:54.702Z,99722.00
2023-04-03T19:50:21.098Z,99727.63
2023-04-03T19:52:47.435Z,99724.34
2023-04-03T19:55:14.751Z,99724.34
2023-04-03T19:57:41.187Z,99720.84
2023-04-03T20:00:07.758Z,99727.00
2023-04-03T20:02:34.154Z,99732.63
2023-04-03T20:05:00.806Z,99722.09
2023-04-03T20:07:28.354Z,99723.13
2023-04-03T20:09:54.681Z,99729.56
2023-04-03T20:12:20.998Z,99722.34
2023-04-03T20:14:47.667Z,99720.31
2023-04-03T20:17:14.655Z,99715.09
2023-04-03T20:19:40.968Z,99714.84
2023-04-03T20:22:07.287Z,99724.56
2023-04-03T20:24:33.958Z,99725.78
2023-04-03T20:27:01.772Z,99719.63
2023-04-03T20:29:28.143Z,99721.47
2023-04-03T20:31:55.231Z,99718.56
2023-04-03T20:34:21.689Z,99725.78
2023-04-03T20:36:49.914Z,99724.72
2023-04-03T20:39:17.345Z,99726.28
2023-04-03T20:41:43.719Z,99718.91
2023-04-03T20:44:10.476Z,99721.47
2023-04-03T20:46:51.506Z,99722.78
2023-04-03T20:49:19.223Z,99720.50
2023-04-03T20:51:45.546Z,99724.25
2023-04-03T20:54:12.829Z,99716.78
2023-04-03T20:56:39.162Z,99709.00
2023-04-03T20:59:05.860Z,99711.34
2023-04-03T21:01:32.225Z,99711.28
2023-04-03T21:04:02.421Z,99700.25
2023-04-03T21:06:48.062Z,99713.88
2023-04-03T21:09:33.271Z,99703.16
2023-04-03T21:12:18.066Z,99703.66
2023-04-03T21:15:04.300Z,99696.38
2023-04-03T21:17:30.620Z,99693.13
2023-04-03T21:19:57.011Z,99698.63
2023-04-03T21:22:23.585Z,99700.06
2023-04-03T21:24:49.987Z,99691.72
2023-04-03T21:27:16.311Z,99697.53
2023-04-03T21:29:43.075Z,99690.81
2023-04-03T21:32:09.389Z,99690.09
2023-04-03T21:34:35.736Z,99683.34
2023-04-03T21:37:05.401Z,99682.06
2023-04-03T21:39:31.956Z,99684.38
2023-04-03T21:41:58.273Z,99685.06
2023-04-03T21:44:24.648Z,99684.91
2023-04-03T21:46:54.409Z,99682.63
2023-04-03T21:49:21.477Z,99677.38
2023-04-03T21:51:47.850Z,99676.31
2023-04-03T21:54:14.736Z,99673.16
2023-04-03T21:56:41.659Z,99671.22
2023-04-03T21:59:08.092Z,99672.03
2023-04-03T22:01:34.552Z,99667.81
2023-04-03T22:04:02.486Z,99670.13
2023-04-03T22:06:28.823Z,99672.69
2023-04-03T22:08:56.987Z,99666.13
2023-04-03T22:11:24.648Z,99658.44
2023-04-03T22:13:51.376Z,99659.63
2023-04-03T22:16:17.714Z,99659.31
2023-04-03T22:18:44.056Z,99661.69
2023-04-03T22:21:10.603Z,99652.03
2023-04-03T22:23:38.040Z,99658.44
2023-04-03T22:26:05.398Z,99651.72
2023-04-03T22:28:32.192Z,99650.91
2023-04-03T22:31:02.932Z,99657.06
2023-04-03T22:33:29.521Z,99661.03
2023-04-03T22:35:55.966Z,99655.19
2023-04-03T22:38:22.467Z,99651.66
2023-04-03T22:40:55.460Z,99661.84
2023-04-03T22:43:22.082Z,99661.41
2023-04-03T22:45:48.449Z,99660.09
2023-04-03T22:48:15.284Z,99660.34
2023-04-03T22:50:41.920Z,99664.91
2023-04-03T22:53:08.772Z,99662.22
2023-04-03T22:55:35.324Z,99658.97
2023-04-03T22:58:01.652Z,99663.50
2023-04-03T23:00:28.117Z,99658.97
2023-04-03T23:02:54.602Z,99660.03
2023-04-03T23:05:21.078Z,99662.16
2023-04-03T23:07:47.518Z,99665.03
2023-04-03T23:10:13.861Z,99659.13
2023-04-03T23:12:40.683Z,99656.94
2023-04-03T23:15:07.540Z,99663.59
2023-04-03T23:17:40.460Z,99656.63
2023-04-03T23:20:07.095Z,99662.78
2023-04-03T23:22:33.411Z,99657.66
2023-04-03T23:24:59.745Z,99666.19
2023-04-03T23:27:26.398Z,99659.44
2023-04-03T23:29:52.728Z,99661.78
2023-04-03T23:32:19.054Z,99662.28
2023-04-03T23:34:45.399Z,99662.75
2023-04-03T23:37:12.367Z,99659.53
2023-04-03T23:39:38.693Z,99674.41
2023-04-03T23:42:10.742Z,99668.72
2023-04-03T23:44:37.237Z,99663.28
2023-04-03T23:47:03.574Z,99663.41
2023-04-03T23:49:29.966Z,99668.19
2023-04-03T23:51:57.481Z,99666.22
2023-04-03T23:54:23.808Z,99669.38
2023-04-03T23:56:50.127Z,99676.25
2023-04-03T23:59:16.478Z,99675.09
